Penacook, New Hampshire
Current Conditions -  °F | °C
As of 11:51 PM on Thursday 30 Oct 2014 (Local Time) from KCON Reporting Station
Overcast Overcast  
Wind Chill: 37°   Ceiling: 4900
Heat Index: 37°   Visibility: 10mi
Dew Point: 35°   Wind: 0mph
Humidity: 93%   Direction: NA
Pressure: 30"   Gusts: NA
Location:  43.3208°N, 71.6638°W
Report Text: KCON 310351Z AUTO 00000KT 10SM OVC049 03/02 A3000 RMK AO2 SLP162 T00280017
Loading
Personal Weather Stations






























Interactive Weather Map
Tropical Storm Tracking
New forecast layout! Learn more

10-Day Weather Forecast

Advertisements
Track Severe Weather on mobile